| |
Missouri Department of Transportation

Social Media Facebook Twitter Flickr Instagram YouTube RSS

Current AWOS Information

 
AWOS Home - General Info for all Airports
Current AWOS for all Airports - Current METAR for all Airports
Glossary - Disclaimer - Other Links


LEBANON--FLOYD W JONES LEBANON--KLBO
 
Recent AWOS History
 
05/24/15     06:12 PM CDT      23:12 GMT
Air Temperature 68°F (20°C ) 1st Cloud Layer Broken at 200 feet
Dew Point 64°F (18°C) 2nd Cloud Layer Broken at 600 feet
Barometric Pressure 29.9 in Hg. 3rd Cloud Layer Broken at 1,500 feet
Wind Speed 3 mph (3 knots) Density Altitude  
Peak Wind Gusts   Variable Wind Directions  
Wind Direction Quadrant(160°) Variable Visibility  
Visibility 5 statute miles  

Thunderstorm and Precipitation Identification:  Moderate Rain
Thunderstorm Remarks: 

Current METAR Record: METAR KLBO 242315Z AUTO 19003KT 5SM -RA BKN002 SCT015 BKN028 20/18 A2990 RMK AO2

 

 

 

About Us
How Do I...
Contact Us
Missouri Department of Transportation
Central Office
105 W. Capitol Avenue
Jefferson City, MO 65102
1-888-ASK-MODOT (275-6636)
1-866-831-6277 (Motor Carrier Services)
Driver's License Offices
horz_bar
| | |
Missouri State Government
© 2013 Missouri Department of Transportation. All Rights Reserved.   Privacy Policy.
 
 
 
 
RSS FeedYoutubeBlogFlickrTwitter Facebook